sensor_id;sensor_type;location;lat;lon;timestamp;P1;durP1;ratioP1;P2;durP2;ratioP2
15002;SDS011;7597;53.590;10.020;2022-09-09T00:02:04;155.50;;;53.08;;
15002;SDS011;7597;53.590;10.020;2022-09-09T00:04:32;168.50;;;53.55;;
15002;SDS011;7597;53.590;10.020;2022-09-09T00:07:05;186.07;;;55.88;;
15002;SDS011;7597;53.590;10.020;2022-09-09T00:09:34;200.25;;;58.00;;
15002;SDS011;7597;53.590;10.020;2022-09-09T00:14:47;217.25;;;60.53;;
15002;SDS011;7597;53.590;10.020;2022-09-09T00:17:14;225.27;;;61.72;;
15002;SDS011;7597;53.590;10.020;2022-09-09T00:19:41;179.77;;;58.15;;
15002;SDS011;7597;53.590;10.020;2022-09-09T00:22:12;215.93;;;60.28;;
15002;SDS011;7597;53.590;10.020;2022-09-09T00:24:41;202.87;;;59.90;;
15002;SDS011;7597;53.590;10.020;2022-09-09T00:27:08;223.80;;;63.92;;
15002;SDS011;7597;53.590;10.020;2022-09-09T00:29:42;209.82;;;61.10;;
15002;SDS011;7597;53.590;10.020;2022-09-09T00:32:13;283.98;;;70.00;;
15002;SDS011;7597;53.590;10.020;2022-09-09T00:34:39;239.95;;;66.50;;
15002;SDS011;7597;53.590;10.020;2022-09-09T00:37:04;274.80;;;68.80;;
15002;SDS011;7597;53.590;10.020;2022-09-09T00:42:09;274.15;;;71.22;;
15002;SDS011;7597;53.590;10.020;2022-09-09T00:44:34;252.50;;;66.53;;
15002;SDS011;7597;53.590;10.020;2022-09-09T00:49:50;335.08;;;76.85;;
15002;SDS011;7597;53.590;10.020;2022-09-09T00:52:26;251.80;;;67.43;;
15002;SDS011;7597;53.590;10.020;2022-09-09T00:55:00;249.60;;;65.93;;
15002;SDS011;7597;53.590;10.020;2022-09-09T00:57:26;302.23;;;71.60;;
15002;SDS011;7597;53.590;10.020;2022-09-09T00:59:56;275.13;;;70.65;;
15002;SDS011;7597;53.590;10.020;2022-09-09T01:04:51;259.87;;;68.15;;
15002;SDS011;7597;53.590;10.020;2022-09-09T01:07:18;248.70;;;66.05;;
15002;SDS011;7597;53.590;10.020;2022-09-09T01:09:52;226.90;;;64.43;;
15002;SDS011;7597;53.590;10.020;2022-09-09T01:12:25;241.55;;;61.03;;
15002;SDS011;7597;53.590;10.020;2022-09-09T01:14:52;227.70;;;61.15;;
15002;SDS011;7597;53.590;10.020;2022-09-09T01:17:19;222.80;;;59.50;;
15002;SDS011;7597;53.590;10.020;2022-09-09T01:20:20;208.90;;;56.60;;
15002;SDS011;7597;53.590;10.020;2022-09-09T01:22:38;206.60;;;54.72;;
15002;SDS011;7597;53.590;10.020;2022-09-09T01:25:18;202.30;;;56.03;;
15002;SDS011;7597;53.590;10.020;2022-09-09T01:27:43;214.88;;;56.35;;
15002;SDS011;7597;53.590;10.020;2022-09-09T01:30:10;200.45;;;54.58;;
15002;SDS011;7597;53.590;10.020;2022-09-09T01:32:39;219.60;;;56.10;;
15002;SDS011;7597;53.590;10.020;2022-09-09T01:35:07;189.60;;;54.55;;
15002;SDS011;7597;53.590;10.020;2022-09-09T01:37:33;203.60;;;54.75;;
15002;SDS011;7597;53.590;10.020;2022-09-09T01:40:00;189.05;;;56.40;;
15002;SDS011;7597;53.590;10.020;2022-09-09T01:42:27;194.52;;;53.17;;
15002;SDS011;7597;53.590;10.020;2022-09-09T01:44:53;201.55;;;56.45;;
15002;SDS011;7597;53.590;10.020;2022-09-09T01:47:20;207.68;;;57.38;;
15002;SDS011;7597;53.590;10.020;2022-09-09T01:49:47;231.90;;;57.28;;
15002;SDS011;7597;53.590;10.020;2022-09-09T01:52:13;217.45;;;57.00;;
15002;SDS011;7597;53.590;10.020;2022-09-09T01:54:40;219.80;;;56.97;;
15002;SDS011;7597;53.590;10.020;2022-09-09T01:57:11;202.38;;;55.28;;
15002;SDS011;7597;53.590;10.020;2022-09-09T02:02:13;283.90;;;62.47;;
15002;SDS011;7597;53.590;10.020;2022-09-09T02:04:44;227.45;;;57.47;;
15002;SDS011;7597;53.590;10.020;2022-09-09T02:07:15;214.07;;;54.25;;
15002;SDS011;7597;53.590;10.020;2022-09-09T02:09:42;225.73;;;55.20;;
15002;SDS011;7597;53.590;10.020;2022-09-09T02:12:10;178.68;;;51.78;;
15002;SDS011;7597;53.590;10.020;2022-09-09T02:14:36;170.90;;;50.42;;
15002;SDS011;7597;53.590;10.020;2022-09-09T02:17:03;229.23;;;56.37;;
15002;SDS011;7597;53.590;10.020;2022-09-09T02:19:34;198.35;;;51.42;;
15002;SDS011;7597;53.590;10.020;2022-09-09T02:22:00;207.68;;;55.08;;
15002;SDS011;7597;53.590;10.020;2022-09-09T02:24:27;195.62;;;53.35;;
15002;SDS011;7597;53.590;10.020;2022-09-09T02:26:53;194.75;;;54.13;;
15002;SDS011;7597;53.590;10.020;2022-09-09T02:29:21;187.73;;;52.72;;
15002;SDS011;7597;53.590;10.020;2022-09-09T02:31:47;192.87;;;56.10;;
15002;SDS011;7597;53.590;10.020;2022-09-09T02:34:13;206.98;;;57.28;;
15002;SDS011;7597;53.590;10.020;2022-09-09T02:36:40;214.60;;;57.00;;
15002;SDS011;7597;53.590;10.020;2022-09-09T02:39:08;219.73;;;57.20;;
15002;SDS011;7597;53.590;10.020;2022-09-09T02:41:35;210.00;;;58.63;;
15002;SDS011;7597;53.590;10.020;2022-09-09T02:44:01;211.23;;;57.15;;
15002;SDS011;7597;53.590;10.020;2022-09-09T02:46:34;190.88;;;54.35;;
15002;SDS011;7597;53.590;10.020;2022-09-09T02:49:04;192.57;;;53.78;;
15002;SDS011;7597;53.590;10.020;2022-09-09T02:51:45;186.73;;;52.53;;
15002;SDS011;7597;53.590;10.020;2022-09-09T02:54:21;178.68;;;54.28;;
15002;SDS011;7597;53.590;10.020;2022-09-09T02:57:01;175.50;;;51.63;;
15002;SDS011;7597;53.590;10.020;2022-09-09T02:59:24;165.50;;;49.15;;
15002;SDS011;7597;53.590;10.020;2022-09-09T03:01:51;181.20;;;53.17;;
15002;SDS011;7597;53.590;10.020;2022-09-09T03:04:17;172.18;;;51.37;;
15002;SDS011;7597;53.590;10.020;2022-09-09T03:06:44;151.82;;;50.78;;
15002;SDS011;7597;53.590;10.020;2022-09-09T03:09:11;141.75;;;51.05;;
15002;SDS011;7597;53.590;10.020;2022-09-09T03:11:37;162.25;;;52.83;;
15002;SDS011;7597;53.590;10.020;2022-09-09T03:14:04;148.05;;;50.95;;
15002;SDS011;7597;53.590;10.020;2022-09-09T03:16:31;166.10;;;51.22;;
15002;SDS011;7597;53.590;10.020;2022-09-09T03:18:57;172.48;;;51.95;;
15002;SDS011;7597;53.590;10.020;2022-09-09T03:21:24;180.18;;;51.22;;
15002;SDS011;7597;53.590;10.020;2022-09-09T03:23:51;163.80;;;51.08;;
15002;SDS011;7597;53.590;10.020;2022-09-09T03:26:17;184.77;;;52.80;;
15002;SDS011;7597;53.590;10.020;2022-09-09T03:28:44;170.10;;;50.30;;
15002;SDS011;7597;53.590;10.020;2022-09-09T03:31:11;158.07;;;49.05;;
15002;SDS011;7597;53.590;10.020;2022-09-09T03:33:37;157.82;;;47.38;;
15002;SDS011;7597;53.590;10.020;2022-09-09T03:36:04;169.82;;;48.72;;
15002;SDS011;7597;53.590;10.020;2022-09-09T03:38:31;135.57;;;44.78;;
15002;SDS011;7597;53.590;10.020;2022-09-09T03:40:57;153.00;;;46.20;;
15002;SDS011;7597;53.590;10.020;2022-09-09T03:43:24;148.70;;;46.08;;
15002;SDS011;7597;53.590;10.020;2022-09-09T03:45:51;133.50;;;45.17;;
15002;SDS011;7597;53.590;10.020;2022-09-09T03:48:18;155.90;;;47.20;;
15002;SDS011;7597;53.590;10.020;2022-09-09T03:50:45;174.02;;;48.53;;
15002;SDS011;7597;53.590;10.020;2022-09-09T03:53:13;173.98;;;50.08;;
15002;SDS011;7597;53.590;10.020;2022-09-09T03:55:39;173.70;;;48.85;;
15002;SDS011;7597;53.590;10.020;2022-09-09T03:58:05;195.95;;;51.40;;
15002;SDS011;7597;53.590;10.020;2022-09-09T04:00:32;163.15;;;47.85;;
15002;SDS011;7597;53.590;10.020;2022-09-09T04:02:59;154.85;;;45.60;;
15002;SDS011;7597;53.590;10.020;2022-09-09T04:05:25;195.87;;;49.47;;
15002;SDS011;7597;53.590;10.020;2022-09-09T04:07:52;196.55;;;46.85;;
15002;SDS011;7597;53.590;10.020;2022-09-09T04:10:19;171.80;;;47.70;;
15002;SDS011;7597;53.590;10.020;2022-09-09T04:12:46;194.40;;;48.90;;
15002;SDS011;7597;53.590;10.020;2022-09-09T04:15:13;181.87;;;46.30;;
15002;SDS011;7597;53.590;10.020;2022-09-09T04:17:40;161.52;;;46.35;;
15002;SDS011;7597;53.590;10.020;2022-09-09T04:20:06;167.05;;;48.22;;
15002;SDS011;7597;53.590;10.020;2022-09-09T04:22:34;155.25;;;45.72;;
15002;SDS011;7597;53.590;10.020;2022-09-09T04:25:01;153.35;;;43.87;;
15002;SDS011;7597;53.590;10.020;2022-09-09T04:27:27;149.23;;;45.75;;
15002;SDS011;7597;53.590;10.020;2022-09-09T04:29:54;137.43;;;43.97;;
15002;SDS011;7597;53.590;10.020;2022-09-09T04:32:21;152.50;;;45.33;;
15002;SDS011;7597;53.590;10.020;2022-09-09T04:34:47;186.00;;;48.30;;
15002;SDS011;7597;53.590;10.020;2022-09-09T04:37:14;154.68;;;46.17;;
15002;SDS011;7597;53.590;10.020;2022-09-09T04:39:42;148.60;;;45.47;;
15002;SDS011;7597;53.590;10.020;2022-09-09T04:42:08;127.97;;;43.90;;
15002;SDS011;7597;53.590;10.020;2022-09-09T04:44:35;110.45;;;41.22;;
15002;SDS011;7597;53.590;10.020;2022-09-09T04:47:02;140.45;;;45.42;;
15002;SDS011;7597;53.590;10.020;2022-09-09T04:49:28;118.37;;;41.78;;
15002;SDS011;7597;53.590;10.020;2022-09-09T04:51:55;102.87;;;39.30;;
15002;SDS011;7597;53.590;10.020;2022-09-09T04:54:22;106.93;;;39.55;;
15002;SDS011;7597;53.590;10.020;2022-09-09T04:56:50;95.85;;;38.25;;
15002;SDS011;7597;53.590;10.020;2022-09-09T04:59:16;93.90;;;38.15;;
15002;SDS011;7597;53.590;10.020;2022-09-09T05:01:43;88.53;;;35.88;;
15002;SDS011;7597;53.590;10.020;2022-09-09T05:04:09;83.47;;;35.03;;
15002;SDS011;7597;53.590;10.020;2022-09-09T05:06:36;80.68;;;34.47;;
15002;SDS011;7597;53.590;10.020;2022-09-09T05:09:03;83.15;;;34.40;;
15002;SDS011;7597;53.590;10.020;2022-09-09T05:11:30;87.93;;;34.38;;
15002;SDS011;7597;53.590;10.020;2022-09-09T05:13:56;82.22;;;33.67;;
15002;SDS011;7597;53.590;10.020;2022-09-09T05:16:23;73.50;;;32.95;;
15002;SDS011;7597;53.590;10.020;2022-09-09T05:18:49;72.57;;;32.35;;
15002;SDS011;7597;53.590;10.020;2022-09-09T05:21:16;68.35;;;31.90;;
15002;SDS011;7597;53.590;10.020;2022-09-09T05:23:42;66.47;;;31.98;;
15002;SDS011;7597;53.590;10.020;2022-09-09T05:26:16;69.05;;;31.35;;
15002;SDS011;7597;53.590;10.020;2022-09-09T05:28:43;69.00;;;31.90;;
15002;SDS011;7597;53.590;10.020;2022-09-09T05:31:11;67.72;;;30.90;;
15002;SDS011;7597;53.590;10.020;2022-09-09T05:33:38;56.85;;;30.70;;
15002;SDS011;7597;53.590;10.020;2022-09-09T05:36:05;69.00;;;32.78;;
15002;SDS011;7597;53.590;10.020;2022-09-09T05:38:31;67.22;;;31.25;;
15002;SDS011;7597;53.590;10.020;2022-09-09T05:40:58;57.50;;;30.42;;
15002;SDS011;7597;53.590;10.020;2022-09-09T05:43:25;54.78;;;30.45;;
15002;SDS011;7597;53.590;10.020;2022-09-09T05:46:01;65.57;;;32.10;;
15002;SDS011;7597;53.590;10.020;2022-09-09T05:48:31;60.72;;;30.08;;
15002;SDS011;7597;53.590;10.020;2022-09-09T05:50:58;57.85;;;30.60;;
15002;SDS011;7597;53.590;10.020;2022-09-09T05:53:24;62.47;;;31.58;;
15002;SDS011;7597;53.590;10.020;2022-09-09T05:55:57;56.92;;;30.48;;
15002;SDS011;7597;53.590;10.020;2022-09-09T05:58:17;62.20;;;32.53;;
15002;SDS011;7597;53.590;10.020;2022-09-09T06:00:44;52.50;;;28.92;;
15002;SDS011;7597;53.590;10.020;2022-09-09T06:03:11;46.25;;;28.33;;
15002;SDS011;7597;53.590;10.020;2022-09-09T06:05:37;54.03;;;28.52;;
15002;SDS011;7597;53.590;10.020;2022-09-09T06:08:04;50.88;;;28.90;;
15002;SDS011;7597;53.590;10.020;2022-09-09T06:10:30;43.10;;;26.20;;
15002;SDS011;7597;53.590;10.020;2022-09-09T06:12:57;49.03;;;26.73;;
15002;SDS011;7597;53.590;10.020;2022-09-09T06:15:24;44.88;;;25.33;;
15002;SDS011;7597;53.590;10.020;2022-09-09T06:17:56;42.70;;;24.50;;
15002;SDS011;7597;53.590;10.020;2022-09-09T06:20:24;38.08;;;22.98;;
15002;SDS011;7597;53.590;10.020;2022-09-09T06:22:50;39.40;;;23.02;;
15002;SDS011;7597;53.590;10.020;2022-09-09T06:25:17;37.03;;;22.13;;
15002;SDS011;7597;53.590;10.020;2022-09-09T06:27:48;29.90;;;20.33;;
15002;SDS011;7597;53.590;10.020;2022-09-09T06:30:11;33.08;;;21.50;;
15002;SDS011;7597;53.590;10.020;2022-09-09T06:32:39;29.60;;;19.30;;
15002;SDS011;7597;53.590;10.020;2022-09-09T06:35:06;37.08;;;21.70;;
15002;SDS011;7597;53.590;10.020;2022-09-09T06:37:33;34.33;;;19.67;;
15002;SDS011;7597;53.590;10.020;2022-09-09T06:40:01;31.65;;;19.30;;
15002;SDS011;7597;53.590;10.020;2022-09-09T06:42:28;34.25;;;21.37;;
15002;SDS011;7597;53.590;10.020;2022-09-09T06:44:54;27.13;;;19.42;;
15002;SDS011;7597;53.590;10.020;2022-09-09T06:47:21;26.75;;;18.62;;
15002;SDS011;7597;53.590;10.020;2022-09-09T06:49:47;24.45;;;17.27;;
15002;SDS011;7597;53.590;10.020;2022-09-09T06:52:14;32.70;;;18.62;;
15002;SDS011;7597;53.590;10.020;2022-09-09T06:54:42;30.10;;;18.75;;
15002;SDS011;7597;53.590;10.020;2022-09-09T06:57:08;28.25;;;18.30;;
15002;SDS011;7597;53.590;10.020;2022-09-09T06:59:35;23.17;;;16.95;;
15002;SDS011;7597;53.590;10.020;2022-09-09T07:02:02;26.17;;;18.45;;
15002;SDS011;7597;53.590;10.020;2022-09-09T07:04:28;30.65;;;19.30;;
15002;SDS011;7597;53.590;10.020;2022-09-09T07:06:55;20.60;;;14.80;;
15002;SDS011;7597;53.590;10.020;2022-09-09T07:09:21;20.55;;;15.23;;
15002;SDS011;7597;53.590;10.020;2022-09-09T07:11:49;15.57;;;13.65;;
15002;SDS011;7597;53.590;10.020;2022-09-09T07:14:15;16.23;;;13.18;;
15002;SDS011;7597;53.590;10.020;2022-09-09T07:16:42;11.82;;;10.55;;
15002;SDS011;7597;53.590;10.020;2022-09-09T07:19:09;9.43;;;7.55;;
15002;SDS011;7597;53.590;10.020;2022-09-09T07:21:36;8.25;;;7.30;;
15002;SDS011;7597;53.590;10.020;2022-09-09T07:24:03;10.88;;;7.55;;
15002;SDS011;7597;53.590;10.020;2022-09-09T07:26:30;9.48;;;7.47;;
15002;SDS011;7597;53.590;10.020;2022-09-09T07:28:56;9.18;;;7.90;;
15002;SDS011;7597;53.590;10.020;2022-09-09T07:31:24;10.20;;;7.55;;
15002;SDS011;7597;53.590;10.020;2022-09-09T07:33:50;8.35;;;7.55;;
15002;SDS011;7597;53.590;10.020;2022-09-09T07:36:17;10.38;;;7.95;;
15002;SDS011;7597;53.590;10.020;2022-09-09T07:38:46;12.57;;;7.45;;
15002;SDS011;7597;53.590;10.020;2022-09-09T07:41:14;9.45;;;7.40;;
15002;SDS011;7597;53.590;10.020;2022-09-09T07:43:41;9.43;;;7.22;;
15002;SDS011;7597;53.590;10.020;2022-09-09T07:46:07;7.72;;;6.12;;
15002;SDS011;7597;53.590;10.020;2022-09-09T07:48:33;8.50;;;5.37;;
15002;SDS011;7597;53.590;10.020;2022-09-09T07:51:03;5.28;;;4.70;;
15002;SDS011;7597;53.590;10.020;2022-09-09T07:53:30;8.98;;;5.30;;
15002;SDS011;7597;53.590;10.020;2022-09-09T07:56:06;6.32;;;5.22;;
15002;SDS011;7597;53.590;10.020;2022-09-09T07:58:33;5.10;;;4.53;;
15002;SDS011;7597;53.590;10.020;2022-09-09T08:00:59;5.07;;;4.55;;
15002;SDS011;7597;53.590;10.020;2022-09-09T08:03:26;5.30;;;4.90;;
15002;SDS011;7597;53.590;10.020;2022-09-09T08:05:53;6.82;;;5.37;;
15002;SDS011;7597;53.590;10.020;2022-09-09T08:08:19;7.80;;;5.65;;
15002;SDS011;7597;53.590;10.020;2022-09-09T08:10:46;5.97;;;5.30;;
15002;SDS011;7597;53.590;10.020;2022-09-09T08:13:13;8.55;;;5.85;;
15002;SDS011;7597;53.590;10.020;2022-09-09T08:15:40;5.97;;;5.37;;
15002;SDS011;7597;53.590;10.020;2022-09-09T08:18:06;6.20;;;5.60;;
15002;SDS011;7597;53.590;10.020;2022-09-09T08:20:35;8.00;;;5.87;;
15002;SDS011;7597;53.590;10.020;2022-09-09T08:23:00;8.98;;;5.07;;
15002;SDS011;7597;53.590;10.020;2022-09-09T08:25:26;8.65;;;5.65;;
15002;SDS011;7597;53.590;10.020;2022-09-09T08:27:53;4.97;;;4.57;;
15002;SDS011;7597;53.590;10.020;2022-09-09T08:30:20;5.55;;;4.37;;
15002;SDS011;7597;53.590;10.020;2022-09-09T08:32:46;7.45;;;4.70;;
15002;SDS011;7597;53.590;10.020;2022-09-09T08:35:13;5.43;;;4.20;;
15002;SDS011;7597;53.590;10.020;2022-09-09T08:37:40;5.25;;;4.55;;
15002;SDS011;7597;53.590;10.020;2022-09-09T08:40:07;4.85;;;4.28;;
15002;SDS011;7597;53.590;10.020;2022-09-09T08:42:35;5.72;;;4.57;;
15002;SDS011;7597;53.590;10.020;2022-09-09T08:47:44;6.20;;;4.78;;
15002;SDS011;7597;53.590;10.020;2022-09-09T08:50:17;8.32;;;4.82;;
15002;SDS011;7597;53.590;10.020;2022-09-09T08:52:51;5.78;;;4.82;;
15002;SDS011;7597;53.590;10.020;2022-09-09T08:55:22;5.90;;;5.07;;
15002;SDS011;7597;53.590;10.020;2022-09-09T08:57:46;5.57;;;4.87;;
15002;SDS011;7597;53.590;10.020;2022-09-09T09:00:13;5.62;;;5.00;;
15002;SDS011;7597;53.590;10.020;2022-09-09T09:05:19;7.15;;;4.22;;
15002;SDS011;7597;53.590;10.020;2022-09-09T09:07:52;15.98;;;12.37;;
15002;SDS011;7597;53.590;10.020;2022-09-09T09:10:39;6.28;;;4.40;;
15002;SDS011;7597;53.590;10.020;2022-09-09T09:13:08;4.55;;;4.00;;
15002;SDS011;7597;53.590;10.020;2022-09-09T09:15:36;6.22;;;4.40;;
15002;SDS011;7597;53.590;10.020;2022-09-09T09:18:00;5.97;;;4.28;;
15002;SDS011;7597;53.590;10.020;2022-09-09T09:20:29;6.45;;;4.15;;
15002;SDS011;7597;53.590;10.020;2022-09-09T09:22:54;4.60;;;4.10;;
15002;SDS011;7597;53.590;10.020;2022-09-09T09:25:22;6.37;;;3.50;;
15002;SDS011;7597;53.590;10.020;2022-09-09T09:27:54;5.55;;;5.03;;
15002;SDS011;7597;53.590;10.020;2022-09-09T09:30:29;5.43;;;2.92;;
15002;SDS011;7597;53.590;10.020;2022-09-09T09:33:01;5.72;;;4.03;;
15002;SDS011;7597;53.590;10.020;2022-09-09T09:35:27;4.78;;;3.20;;
15002;SDS011;7597;53.590;10.020;2022-09-09T09:37:54;3.97;;;3.03;;
15002;SDS011;7597;53.590;10.020;2022-09-09T09:40:21;3.75;;;3.00;;
15002;SDS011;7597;53.590;10.020;2022-09-09T09:42:57;4.00;;;2.92;;
15002;SDS011;7597;53.590;10.020;2022-09-09T09:45:32;4.43;;;3.08;;
15002;SDS011;7597;53.590;10.020;2022-09-09T09:47:58;3.55;;;3.22;;
15002;SDS011;7597;53.590;10.020;2022-09-09T09:50:25;3.55;;;3.08;;
15002;SDS011;7597;53.590;10.020;2022-09-09T09:52:54;3.72;;;2.72;;
15002;SDS011;7597;53.590;10.020;2022-09-09T09:55:20;4.00;;;2.60;;
15002;SDS011;7597;53.590;10.020;2022-09-09T09:57:47;3.92;;;3.20;;
15002;SDS011;7597;53.590;10.020;2022-09-09T10:00:15;6.47;;;2.60;;
15002;SDS011;7597;53.590;10.020;2022-09-09T10:02:45;3.75;;;2.50;;
15002;SDS011;7597;53.590;10.020;2022-09-09T10:05:14;2.97;;;2.53;;
15002;SDS011;7597;53.590;10.020;2022-09-09T10:07:39;5.82;;;2.37;;
15002;SDS011;7597;53.590;10.020;2022-09-09T10:10:08;2.50;;;2.10;;
15002;SDS011;7597;53.590;10.020;2022-09-09T10:12:40;6.18;;;2.33;;
15002;SDS011;7597;53.590;10.020;2022-09-09T10:15:26;3.80;;;2.80;;
15002;SDS011;7597;53.590;10.020;2022-09-09T10:18:13;4.68;;;2.60;;
15002;SDS011;7597;53.590;10.020;2022-09-09T10:22:01;3.05;;;2.65;;
15002;SDS011;7597;53.590;10.020;2022-09-09T10:23:46;7.00;;;2.83;;
15002;SDS011;7597;53.590;10.020;2022-09-09T10:26:22;3.33;;;2.20;;
15002;SDS011;7597;53.590;10.020;2022-09-09T10:28:54;3.70;;;2.12;;
15002;SDS011;7597;53.590;10.020;2022-09-09T10:31:18;2.45;;;1.90;;
15002;SDS011;7597;53.590;10.020;2022-09-09T10:33:47;4.12;;;2.33;;
15002;SDS011;7597;53.590;10.020;2022-09-09T10:36:20;4.10;;;2.67;;
15002;SDS011;7597;53.590;10.020;2022-09-09T10:38:47;2.83;;;2.37;;
15002;SDS011;7597;53.590;10.020;2022-09-09T10:41:15;2.47;;;2.28;;
15002;SDS011;7597;53.590;10.020;2022-09-09T10:45:02;2.58;;;2.10;;
15002;SDS011;7597;53.590;10.020;2022-09-09T10:49:17;3.67;;;2.45;;
15002;SDS011;7597;53.590;10.020;2022-09-09T10:52:32;4.45;;;2.10;;
15002;SDS011;7597;53.590;10.020;2022-09-09T10:54:51;3.22;;;1.77;;
15002;SDS011;7597;53.590;10.020;2022-09-09T11:00:14;2.97;;;1.60;;
15002;SDS011;7597;53.590;10.020;2022-09-09T11:02:44;2.35;;;1.55;;
15002;SDS011;7597;53.590;10.020;2022-09-09T11:05:18;2.92;;;1.67;;
15002;SDS011;7597;53.590;10.020;2022-09-09T11:07:56;2.67;;;1.75;;
15002;SDS011;7597;53.590;10.020;2022-09-09T11:10:28;3.70;;;1.70;;
15002;SDS011;7597;53.590;10.020;2022-09-09T11:12:59;2.05;;;1.55;;
15002;SDS011;7597;53.590;10.020;2022-09-09T11:15:25;3.58;;;1.75;;
15002;SDS011;7597;53.590;10.020;2022-09-09T11:17:51;3.10;;;1.70;;
15002;SDS011;7597;53.590;10.020;2022-09-09T11:20:16;1.90;;;1.58;;
15002;SDS011;7597;53.590;10.020;2022-09-09T11:22:51;4.07;;;1.58;;
15002;SDS011;7597;53.590;10.020;2022-09-09T11:25:22;2.40;;;2.03;;
15002;SDS011;7597;53.590;10.020;2022-09-09T11:28:12;3.12;;;1.70;;
15002;SDS011;7597;53.590;10.020;2022-09-09T11:36:03;2.90;;;2.00;;
15002;SDS011;7597;53.590;10.020;2022-09-09T11:38:28;3.78;;;2.08;;
15002;SDS011;7597;53.590;10.020;2022-09-09T11:40:56;3.55;;;1.95;;
15002;SDS011;7597;53.590;10.020;2022-09-09T11:43:27;2.17;;;1.73;;
15002;SDS011;7597;53.590;10.020;2022-09-09T11:46:02;4.28;;;2.08;;
15002;SDS011;7597;53.590;10.020;2022-09-09T11:48:33;4.45;;;2.40;;
15002;SDS011;7597;53.590;10.020;2022-09-09T11:51:08;4.07;;;2.12;;
15002;SDS011;7597;53.590;10.020;2022-09-09T11:53:35;4.07;;;1.80;;
15002;SDS011;7597;53.590;10.020;2022-09-09T11:56:03;3.95;;;1.92;;
15002;SDS011;7597;53.590;10.020;2022-09-09T11:58:33;2.92;;;1.83;;
15002;SDS011;7597;53.590;10.020;2022-09-09T12:00:59;4.28;;;2.08;;
15002;SDS011;7597;53.590;10.020;2022-09-09T12:05:58;2.42;;;1.83;;
15002;SDS011;7597;53.590;10.020;2022-09-09T12:08:26;2.97;;;1.87;;
15002;SDS011;7597;53.590;10.020;2022-09-09T12:10:54;2.45;;;1.90;;
15002;SDS011;7597;53.590;10.020;2022-09-09T12:13:21;2.92;;;1.87;;
15002;SDS011;7597;53.590;10.020;2022-09-09T12:15:48;2.50;;;1.67;;
15002;SDS011;7597;53.590;10.020;2022-09-09T12:18:16;3.33;;;1.73;;
15002;SDS011;7597;53.590;10.020;2022-09-09T12:20:41;3.22;;;1.90;;
15002;SDS011;7597;53.590;10.020;2022-09-09T12:23:14;2.90;;;2.05;;
15002;SDS011;7597;53.590;10.020;2022-09-09T12:26:58;2.00;;;1.80;;
15002;SDS011;7597;53.590;10.020;2022-09-09T12:28:48;4.45;;;2.50;;
15002;SDS011;7597;53.590;10.020;2022-09-09T12:31:20;4.82;;;2.83;;
15002;SDS011;7597;53.590;10.020;2022-09-09T12:33:53;2.95;;;2.58;;
15002;SDS011;7597;53.590;10.020;2022-09-09T12:36:24;4.60;;;3.03;;
15002;SDS011;7597;53.590;10.020;2022-09-09T12:38:51;4.40;;;3.20;;
15002;SDS011;7597;53.590;10.020;2022-09-09T12:41:22;2.87;;;2.67;;
15002;SDS011;7597;53.590;10.020;2022-09-09T12:43:49;4.28;;;3.00;;
15002;SDS011;7597;53.590;10.020;2022-09-09T12:46:20;5.22;;;3.20;;
15002;SDS011;7597;53.590;10.020;2022-09-09T12:48:58;4.43;;;3.30;;
15002;SDS011;7597;53.590;10.020;2022-09-09T12:51:28;8.75;;;3.10;;
15002;SDS011;7597;53.590;10.020;2022-09-09T12:53:53;4.35;;;3.33;;
15002;SDS011;7597;53.590;10.020;2022-09-09T12:56:21;3.90;;;2.87;;
15002;SDS011;7597;53.590;10.020;2022-09-09T12:58:48;4.62;;;2.95;;
15002;SDS011;7597;53.590;10.020;2022-09-09T13:01:20;3.83;;;3.12;;
15002;SDS011;7597;53.590;10.020;2022-09-09T13:03:49;4.70;;;3.20;;
15002;SDS011;7597;53.590;10.020;2022-09-09T13:06:20;4.80;;;3.28;;
15002;SDS011;7597;53.590;10.020;2022-09-09T13:08:49;4.05;;;3.62;;
15002;SDS011;7597;53.590;10.020;2022-09-09T13:11:17;4.00;;;3.62;;
15002;SDS011;7597;53.590;10.020;2022-09-09T13:13:43;4.22;;;3.47;;
15002;SDS011;7597;53.590;10.020;2022-09-09T13:16:18;5.15;;;3.58;;
15002;SDS011;7597;53.590;10.020;2022-09-09T13:18:49;5.90;;;3.85;;
15002;SDS011;7597;53.590;10.020;2022-09-09T13:21:15;4.60;;;3.80;;
15002;SDS011;7597;53.590;10.020;2022-09-09T13:23:42;3.67;;;3.33;;
15002;SDS011;7597;53.590;10.020;2022-09-09T13:28:47;4.10;;;3.70;;
15002;SDS011;7597;53.590;10.020;2022-09-09T13:31:20;3.40;;;2.92;;
15002;SDS011;7597;53.590;10.020;2022-09-09T13:33:47;4.65;;;3.33;;
15002;SDS011;7597;53.590;10.020;2022-09-09T13:36:14;4.35;;;3.60;;
15002;SDS011;7597;53.590;10.020;2022-09-09T13:38:53;4.45;;;3.75;;
15002;SDS011;7597;53.590;10.020;2022-09-09T13:41:22;6.00;;;4.60;;
15002;SDS011;7597;53.590;10.020;2022-09-09T13:43:48;6.07;;;5.10;;
15002;SDS011;7597;53.590;10.020;2022-09-09T13:46:37;6.43;;;5.12;;
15002;SDS011;7597;53.590;10.020;2022-09-09T13:49:17;6.78;;;4.95;;
15002;SDS011;7597;53.590;10.020;2022-09-09T13:51:35;5.47;;;4.28;;
15002;SDS011;7597;53.590;10.020;2022-09-09T13:54:00;5.87;;;4.50;;
15002;SDS011;7597;53.590;10.020;2022-09-09T13:56:27;5.62;;;4.20;;
15002;SDS011;7597;53.590;10.020;2022-09-09T13:58:53;7.90;;;4.90;;
15002;SDS011;7597;53.590;10.020;2022-09-09T14:01:20;6.50;;;5.85;;
15002;SDS011;7597;53.590;10.020;2022-09-09T14:03:47;6.28;;;5.68;;
15002;SDS011;7597;53.590;10.020;2022-09-09T14:06:13;7.32;;;6.50;;
15002;SDS011;7597;53.590;10.020;2022-09-09T14:08:41;9.20;;;7.12;;
15002;SDS011;7597;53.590;10.020;2022-09-09T14:11:08;8.98;;;7.12;;
15002;SDS011;7597;53.590;10.020;2022-09-09T14:13:34;9.90;;;6.97;;
15002;SDS011;7597;53.590;10.020;2022-09-09T14:16:01;9.88;;;7.07;;
15002;SDS011;7597;53.590;10.020;2022-09-09T14:18:28;8.82;;;7.82;;
15002;SDS011;7597;53.590;10.020;2022-09-09T14:20:54;8.93;;;7.40;;
15002;SDS011;7597;53.590;10.020;2022-09-09T14:23:22;10.93;;;7.82;;
15002;SDS011;7597;53.590;10.020;2022-09-09T14:25:48;9.93;;;7.87;;
15002;SDS011;7597;53.590;10.020;2022-09-09T14:28:15;9.73;;;8.00;;
15002;SDS011;7597;53.590;10.020;2022-09-09T14:30:42;8.82;;;7.93;;
15002;SDS011;7597;53.590;10.020;2022-09-09T14:33:09;8.90;;;7.20;;
15002;SDS011;7597;53.590;10.020;2022-09-09T14:35:35;6.90;;;6.30;;
15002;SDS011;7597;53.590;10.020;2022-09-09T14:38:02;7.03;;;6.30;;
15002;SDS011;7597;53.590;10.020;2022-09-09T14:40:29;6.00;;;4.25;;
15002;SDS011;7597;53.590;10.020;2022-09-09T14:42:56;4.72;;;3.58;;
15002;SDS011;7597;53.590;10.020;2022-09-09T14:45:22;6.57;;;4.07;;
15002;SDS011;7597;53.590;10.020;2022-09-09T14:47:49;3.65;;;3.30;;
15002;SDS011;7597;53.590;10.020;2022-09-09T14:50:15;4.22;;;3.83;;
15002;SDS011;7597;53.590;10.020;2022-09-09T14:52:42;6.62;;;4.47;;
15002;SDS011;7597;53.590;10.020;2022-09-09T14:55:09;5.60;;;4.22;;
15002;SDS011;7597;53.590;10.020;2022-09-09T14:57:35;6.50;;;4.85;;
15002;SDS011;7597;53.590;10.020;2022-09-09T15:00:03;5.80;;;4.70;;
15002;SDS011;7597;53.590;10.020;2022-09-09T15:02:29;5.07;;;3.78;;
15002;SDS011;7597;53.590;10.020;2022-09-09T15:04:55;7.68;;;4.45;;
15002;SDS011;7597;53.590;10.020;2022-09-09T15:07:24;6.53;;;4.80;;
15002;SDS011;7597;53.590;10.020;2022-09-09T15:09:50;6.53;;;4.75;;
15002;SDS011;7597;53.590;10.020;2022-09-09T15:12:18;5.82;;;4.70;;
15002;SDS011;7597;53.590;10.020;2022-09-09T15:14:45;5.72;;;5.20;;